Vision — WDF6306 — position and weather

sailwx.info

Track history (hours):
 
Tides and Currents Weather Stations Pressure Air Temp Water Temp Dewpoint Dewpoint Depression Visibility Wind Speed Wind Dir Waves Ship Positions

Vision

Owner: INTREPID SHIP MANAGEMENT, JACKSONVILLE, FL. More information available from US FCC via Universal Licensing System and Coast Guard Vessel Documentation Center.

Last reported at 2014-Dec-22 00:33 UTC. Time now 2014-Dec-22 00:38 UTC.
Position N 37°46' W 122°20'.

Length 199 m; draft 20 m.

Type: Towing. MMSI: 366904000.

Date/timePositionNaut miles runAvg speedWind from/ knotsBaromVisibWave heightAir tempDewpointWater temp
2014-Dec-22 00:33N 37°46' W 122°20'0 0.0
2014-Dec-21 23:33N 37°46' W 122°20'0 0.0
2014-Dec-21 22:33N 37°46' W 122°20'0 0.0
2014-Dec-21 21:33N 37°46' W 122°20'0 0.0
2014-Dec-21 20:33N 37°46' W 122°20'0 0.1
2014-Dec-21 19:33N 37°46' W 122°20'0 0.2
2014-Dec-21 18:33N 37°45' W 122°20'0 0.0
2014-Dec-21 17:33N 37°45' W 122°20'0 0.0
2014-Dec-21 16:33N 37°45' W 122°20'0 0.0
2014-Dec-21 15:33N 37°45' W 122°20'0 0.0
2014-Dec-21 14:33N 37°45' W 122°20'0 0.1
2014-Dec-21 13:33N 37°45' W 122°20'0 0.2
2014-Dec-21 12:33N 37°46' W 122°20'0 0.0
2014-Dec-21 11:33N 37°46' W 122°20'0 0.0
2014-Dec-21 10:33N 37°46' W 122°20'0 0.0
2014-Dec-21 09:33N 37°46' W 122°20'0 0.1
2014-Dec-21 08:33N 37°46' W 122°20'0 0.2
2014-Dec-21 07:33N 37°45' W 122°20'0 0.0
2014-Dec-21 06:33N 37°45' W 122°20'0 0.0
2014-Dec-21 05:33N 37°45' W 122°20'0 0.0
2014-Dec-21 04:33N 37°45' W 122°20'0 0.0
2014-Dec-21 03:33N 37°45' W 122°20'0 0.0
2014-Dec-21 02:33N 37°45' W 122°20'0 0.3
2014-Dec-21 01:33N 37°46' W 122°20'0 0.0
2014-Dec-21 00:33N 37°46' W 122°20'0 0.0
2014-Dec-20 23:33N 37°46' W 122°20'0 0.0
2014-Dec-20 22:33N 37°46' W 122°20'0 0.0
2014-Dec-20 21:33N 37°46' W 122°20'0 0.0
2014-Dec-20 20:33N 37°46' W 122°20'0 0.0
2014-Dec-20 19:33N 37°46' W 122°20'0 0.2
2014-Dec-20 18:33N 37°45' W 122°20'0 0.1
2014-Dec-20 17:33N 37°45' W 122°20'0 0.0
2014-Dec-20 16:33N 37°45' W 122°20'0 0.0
2014-Dec-20 15:33N 37°45' W 122°20'0 0.0
2014-Dec-20 14:33N 37°45' W 122°20'0 0.0
2014-Dec-20 13:33N 37°45' W 122°20'0 0.1
2014-Dec-20 12:33N 37°45' W 122°20'1 0.5
2014-Dec-20 11:33N 37°46' W 122°20'1111.1
2014-Dec-20 10:34N 37°56' W 122°27'1111.4
2014-Dec-20 09:33N 38°04' W 122°16'7 6.4
2014-Dec-20 08:32N 38°02' W 122°08'0 0.0
2014-Dec-20 01:19N 38°02' W 122°08'0 0.0
2014-Dec-20 00:07N 38°02' W 122°08'0 0.0
2014-Dec-19 22:13N 38°02' W 122°08'0 0.0
2014-Dec-19 17:31N 38°02' W 122°08'0 0.0
2014-Dec-19 16:31N 38°02' W 122°08'0 0.0
2014-Dec-19 15:31N 38°02' W 122°08'0 0.0
2014-Dec-19 14:31N 38°02' W 122°08'0 0.0
2014-Dec-19 13:19N 38°02' W 122°08'0 0.0
2014-Dec-19 12:25N 38°02' W 122°08'0 0.0
2014-Dec-19 11:19N 38°02' W 122°08'0 0.0
2014-Dec-19 10:07N 38°02' W 122°08'0 0.0
2014-Dec-19 08:31N 38°02' W 122°08'0 0.0
2014-Dec-19 07:31N 38°02' W 122°08'0 0.0
2014-Dec-19 06:31N 38°02' W 122°08'0 0.0
2014-Dec-19 03:07N 38°02' W 122°08'0 0.0
2014-Dec-19 02:31N 38°02' W 122°08'0 0.0
2014-Dec-18 15:31N 38°02' W 122°08'0 0.0
2014-Dec-17 19:25N 38°02' W 122°08'0 0.0
2014-Dec-17 15:25N 38°02' W 122°08'0 0.0
2014-Dec-17 14:19N 38°02' W 122°08'0 0.0
2014-Dec-17 13:25N 38°02' W 122°08'0 0.0
2014-Dec-17 12:25N 38°02' W 122°08'0 0.0
2014-Dec-17 11:25N 38°02' W 122°08'0 0.0
2014-Dec-17 09:13N 38°02' W 122°08'0 0.0
2014-Dec-17 02:25N 38°02' W 122°08'0 0.0
2014-Dec-17 01:25N 38°02' W 122°08'0 0.0
2014-Dec-17 00:25N 38°02' W 122°08'0 0.0
2014-Dec-16 13:31N 38°02' W 122°08'0 0.0
2014-Dec-16 12:25N 38°02' W 122°08'0 0.0
2014-Dec-16 11:31N 38°02' W 122°08'0 0.0
2014-Dec-16 10:31N 38°02' W 122°08'0 0.0
2014-Dec-16 09:33N 38°02' W 122°08'4 4.2
2014-Dec-16 08:33N 38°04' W 122°13'10 9.8
2014-Dec-16 07:33N 38°00' W 122°25'9 9.0
2014-Dec-16 06:33N 37°51' W 122°25'9 8.5
2014-Dec-16 05:33N 37°47' W 122°34'1010.4
2014-Dec-16 04:33N 37°42' W 122°45'1111.2
2014-Dec-16 03:32N 37°35' W 122°57'30 9.1
2014-Dec-16 00:16N 37°48' W 123°31'6 9.0
2014-Dec-15 23:33N 37°53' W 123°36'1211.5
2014-Dec-15 22:33N 38°02' W 123°46'1211.6
2014-Dec-15 21:33N 38°10' W 123°56'1211.5
2014-Dec-15 20:30N 38°19' W 124°06'  
2014-Dec-13 06:27N 48°14' W 125°16'1011.4
2014-Dec-13 05:33N 48°23' W 125°09'1110.6
2014-Dec-13 04:33N 48°31' W 124°59'1111.0
2014-Dec-13 03:33N 48°30' W 124°42'1110.9
2014-Dec-13 02:33N 48°26' W 124°27'1111.4
2014-Dec-13 01:33N 48°21' W 124°11'1212.0
2014-Dec-13 00:33N 48°18' W 123°54'1211.6
2014-Dec-12 23:33N 48°16' W 123°37'1111.4
2014-Dec-12 22:33N 48°09' W 123°23'2 2.3
2014-Dec-12 21:31N 48°08' W 123°27'0 0.1
2014-Dec-12 20:31N 48°08' W 123°27'0 0.1
2014-Dec-12 19:31N 48°08' W 123°27'0 0.1
2014-Dec-12 18:25N 48°08' W 123°27'0 0.0
2014-Dec-12 17:31N 48°08' W 123°27'0 0.0
2014-Dec-12 16:25N 48°08' W 123°27'0 0.0
2014-Dec-12 15:31N 48°08' W 123°27'0 0.0
2014-Dec-12 14:31N 48°08' W 123°27'0 0.0
2014-Dec-12 13:19N 48°08' W 123°27'0 0.1
2014-Dec-12 12:28N 48°08' W 123°27'0 0.0
2014-Dec-12 11:31N 48°08' W 123°27'0 0.0
2014-Dec-12 10:28N 48°08' W 123°27'0 0.1
2014-Dec-12 09:28N 48°08' W 123°27'0 0.1
2014-Dec-12 08:31N 48°08' W 123°27'0 0.0
2014-Dec-12 07:31N 48°08' W 123°27'0 0.0
2014-Dec-12 04:22N 48°08' W 123°27'0 0.0
2014-Dec-12 03:28N 48°08' W 123°27'0 0.0
2014-Dec-12 02:31N 48°08' W 123°27'0 0.0
2014-Dec-12 01:25N 48°08' W 123°27'  
Track history (hours):
 
Tides and Currents Weather Stations Pressure Air Temp Water Temp Dewpoint Dewpoint Depression Visibility Wind Speed Wind Dir Waves Ship Positions

Vision

Owner: INTREPID SHIP MANAGEMENT, JACKSONVILLE, FL. More information available from US FCC via Universal Licensing System and Coast Guard Vessel Documentation Center.

Last reported at 2014-Dec-22 00:33 UTC. Time now 2014-Dec-22 00:38 UTC.
Position N 37°46' W 122°20'.

Length 199 m; draft 20 m.

Type: Towing. MMSI: 366904000.

Date/timePositionNaut miles runAvg speedWind from/ knotsBaromVisibWave heightAir tempDewpointWater temp
2014-Dec-22 00:33N 37°46' W 122°20'0 0.0
2014-Dec-21 23:33N 37°46' W 122°20'0 0.0
2014-Dec-21 22:33N 37°46' W 122°20'0 0.0
2014-Dec-21 21:33N 37°46' W 122°20'0 0.0
2014-Dec-21 20:33N 37°46' W 122°20'0 0.1
2014-Dec-21 19:33N 37°46' W 122°20'0 0.2
2014-Dec-21 18:33N 37°45' W 122°20'0 0.0
2014-Dec-21 17:33N 37°45' W 122°20'0 0.0
2014-Dec-21 16:33N 37°45' W 122°20'0 0.0
2014-Dec-21 15:33N 37°45' W 122°20'0 0.0
2014-Dec-21 14:33N 37°45' W 122°20'0 0.1
2014-Dec-21 13:33N 37°45' W 122°20'0 0.2
2014-Dec-21 12:33N 37°46' W 122°20'0 0.0
2014-Dec-21 11:33N 37°46' W 122°20'0 0.0
2014-Dec-21 10:33N 37°46' W 122°20'0 0.0
2014-Dec-21 09:33N 37°46' W 122°20'0 0.1
2014-Dec-21 08:33N 37°46' W 122°20'0 0.2
2014-Dec-21 07:33N 37°45' W 122°20'0 0.0
2014-Dec-21 06:33N 37°45' W 122°20'0 0.0
2014-Dec-21 05:33N 37°45' W 122°20'0 0.0
2014-Dec-21 04:33N 37°45' W 122°20'0 0.0
2014-Dec-21 03:33N 37°45' W 122°20'0 0.0
2014-Dec-21 02:33N 37°45' W 122°20'0 0.3
2014-Dec-21 01:33N 37°46' W 122°20'0 0.0
2014-Dec-21 00:33N 37°46' W 122°20'0 0.0
2014-Dec-20 23:33N 37°46' W 122°20'0 0.0
2014-Dec-20 22:33N 37°46' W 122°20'0 0.0
2014-Dec-20 21:33N 37°46' W 122°20'0 0.0
2014-Dec-20 20:33N 37°46' W 122°20'0 0.0
2014-Dec-20 19:33N 37°46' W 122°20'0 0.2
2014-Dec-20 18:33N 37°45' W 122°20'0 0.1
2014-Dec-20 17:33N 37°45' W 122°20'0 0.0
2014-Dec-20 16:33N 37°45' W 122°20'0 0.0
2014-Dec-20 15:33N 37°45' W 122°20'0 0.0
2014-Dec-20 14:33N 37°45' W 122°20'0 0.0
2014-Dec-20 13:33N 37°45' W 122°20'0 0.1
2014-Dec-20 12:33N 37°45' W 122°20'1 0.5
2014-Dec-20 11:33N 37°46' W 122°20'1111.1
2014-Dec-20 10:34N 37°56' W 122°27'1111.4
2014-Dec-20 09:33N 38°04' W 122°16'7 6.4
2014-Dec-20 08:32N 38°02' W 122°08'0 0.0
2014-Dec-20 01:19N 38°02' W 122°08'0 0.0
2014-Dec-20 00:07N 38°02' W 122°08'0 0.0
2014-Dec-19 22:13N 38°02' W 122°08'0 0.0
2014-Dec-19 17:31N 38°02' W 122°08'0 0.0
2014-Dec-19 16:31N 38°02' W 122°08'0 0.0
2014-Dec-19 15:31N 38°02' W 122°08'0 0.0
2014-Dec-19 14:31N 38°02' W 122°08'0 0.0
2014-Dec-19 13:19N 38°02' W 122°08'0 0.0
2014-Dec-19 12:25N 38°02' W 122°08'0 0.0
2014-Dec-19 11:19N 38°02' W 122°08'0 0.0
2014-Dec-19 10:07N 38°02' W 122°08'0 0.0
2014-Dec-19 08:31N 38°02' W 122°08'0 0.0
2014-Dec-19 07:31N 38°02' W 122°08'0 0.0
2014-Dec-19 06:31N 38°02' W 122°08'0 0.0
2014-Dec-19 03:07N 38°02' W 122°08'0 0.0
2014-Dec-19 02:31N 38°02' W 122°08'0 0.0
2014-Dec-18 15:31N 38°02' W 122°08'0 0.0
2014-Dec-17 19:25N 38°02' W 122°08'0 0.0
2014-Dec-17 15:25N 38°02' W 122°08'0 0.0
2014-Dec-17 14:19N 38°02' W 122°08'0 0.0
2014-Dec-17 13:25N 38°02' W 122°08'0 0.0
2014-Dec-17 12:25N 38°02' W 122°08'0 0.0
2014-Dec-17 11:25N 38°02' W 122°08'0 0.0
2014-Dec-17 09:13N 38°02' W 122°08'0 0.0
2014-Dec-17 02:25N 38°02' W 122°08'0 0.0
2014-Dec-17 01:25N 38°02' W 122°08'0 0.0
2014-Dec-17 00:25N 38°02' W 122°08'0 0.0
2014-Dec-16 13:31N 38°02' W 122°08'0 0.0
2014-Dec-16 12:25N 38°02' W 122°08'0 0.0
2014-Dec-16 11:31N 38°02' W 122°08'0 0.0
2014-Dec-16 10:31N 38°02' W 122°08'0 0.0
2014-Dec-16 09:33N 38°02' W 122°08'4 4.2
2014-Dec-16 08:33N 38°04' W 122°13'10 9.8
2014-Dec-16 07:33N 38°00' W 122°25'9 9.0
2014-Dec-16 06:33N 37°51' W 122°25'9 8.5
2014-Dec-16 05:33N 37°47' W 122°34'1010.4
2014-Dec-16 04:33N 37°42' W 122°45'1111.2
2014-Dec-16 03:32N 37°35' W 122°57'30 9.1
2014-Dec-16 00:16N 37°48' W 123°31'6 9.0
2014-Dec-15 23:33N 37°53' W 123°36'1211.5
2014-Dec-15 22:33N 38°02' W 123°46'1211.6
2014-Dec-15 21:33N 38°10' W 123°56'1211.5
2014-Dec-15 20:30N 38°19' W 124°06'  
2014-Dec-13 06:27N 48°14' W 125°16'1011.4
2014-Dec-13 05:33N 48°23' W 125°09'1110.6
2014-Dec-13 04:33N 48°31' W 124°59'1111.0
2014-Dec-13 03:33N 48°30' W 124°42'1110.9
2014-Dec-13 02:33N 48°26' W 124°27'1111.4
2014-Dec-13 01:33N 48°21' W 124°11'1212.0
2014-Dec-13 00:33N 48°18' W 123°54'1211.6
2014-Dec-12 23:33N 48°16' W 123°37'1111.4
2014-Dec-12 22:33N 48°09' W 123°23'2 2.3
2014-Dec-12 21:31N 48°08' W 123°27'0 0.1
2014-Dec-12 20:31N 48°08' W 123°27'0 0.1
2014-Dec-12 19:31N 48°08' W 123°27'0 0.1
2014-Dec-12 18:25N 48°08' W 123°27'0 0.0
2014-Dec-12 17:31N 48°08' W 123°27'0 0.0
2014-Dec-12 16:25N 48°08' W 123°27'0 0.0
2014-Dec-12 15:31N 48°08' W 123°27'0 0.0
2014-Dec-12 14:31N 48°08' W 123°27'0 0.0
2014-Dec-12 13:19N 48°08' W 123°27'0 0.1
2014-Dec-12 12:28N 48°08' W 123°27'0 0.0
2014-Dec-12 11:31N 48°08' W 123°27'0 0.0
2014-Dec-12 10:28N 48°08' W 123°27'0 0.1
2014-Dec-12 09:28N 48°08' W 123°27'0 0.1
2014-Dec-12 08:31N 48°08' W 123°27'0 0.0
2014-Dec-12 07:31N 48°08' W 123°27'0 0.0
2014-Dec-12 04:22N 48°08' W 123°27'0 0.0
2014-Dec-12 03:28N 48°08' W 123°27'0 0.0
2014-Dec-12 02:31N 48°08' W 123°27'0 0.0
2014-Dec-12 01:25N 48°08' W 123°27'  

Dump ship's entire track history